首页
METAR-TAF:

METAR-TAF

机场 :

金奈国际机场

金奈, 印度

纬度: 13-00N, 经度: 080-11E, 海拔: 10米

当前天气观测

该预报发布于28分钟前的14:00 UTC
风速9节,风向
温度 32°C
湿度 75%
气压 1004 hPa
能見度: 4500
散云层高于2000英尺
少量云层高于2500英尺, 塔状积云.
散云层高于10000英尺
轻雾

METAR: VOMM 171400Z 17009KT 4500 BR SCT020 FEW025TCU SCT100 32/27 Q1004 BECMG 5000 BR

时间: 19:58 (14:28 UTC)

预报

该预报发布于3小时和28分钟前的11:00 UTC
预报有效从17日的 12点(UTC)到 18日的 18点(UTC)
风速10节,风向南转南东
能見度: 5000
散云层高于2000英尺
多云层高于10000英尺
短暂存在
从 17日的 12点(UTC)到 17日的 18点(UTC)
散云层高于1800英尺
多云层高于10000英尺
成为
从 17日的 18点(UTC)到 17日的 19点(UTC)
风速10节,风向西
成为
从 18日的 03点(UTC)到 18日的 04点(UTC)
能見度: 6000
成为
从 18日的 06点(UTC)到 18日的 07点(UTC)
风速10节,风向西,有时为20节阵风
成为
从 18日的 12点(UTC)到 18日的 13点(UTC)
风速10节,风向南转南东
能見度: 5000

TAF: VOMM 171100Z 1712/1818 16010KT 5000 HZ/BR SCT020 BKN100 TEMPO 1712/1718 SCT018 FEW025TCU/CB BKN100 BECMG 1718/1719 27010KT BECMG 1803/1804 6000 BECMG 1806/1807 27010G20KT BECMG 1812/1813 16010KT 5000 HZ/BR

超过4000个机场的气象观测和天气预报(METAR&TAF报告)。

可查询的气象台以黄色和红色小点在地图上表示。

将鼠标移到小点上方,可查看气象台名称。

然后点击查看天气观测和预报。

如需切换地图:点击带黑十字的绿色按钮放大地图;点击带横线的绿色按钮缩小地图;或者点击绿色箭头查看邻近地区的地图。


METAR-TAF: